.
WxDataArchive / Data Records for 2009-07-04
2009-07-03 July 2009 2009-07-05

Data Records for Saturday, 04 July 2009

Time	Temp	Chill	HIndex	Humid	Dewpt	 Wind 	HiWind	WindDir	Rain 	Barom 
-----	----	-----	------	-----	-----	------	------	-------	-----	----- 
00:00	61.8	61.8	61.8	77	54.5	0	0	---	0.00	30.070 
00:05	61.3	61.3	61.3	78	54.4	0	0	---	0.00	30.070 
00:10	61.0	61.0	61.0	79	54.4	0	0	---	0.00	30.070 
00:15	60.7	60.7	60.7	80	54.5	0	0	---	0.00	30.070 
00:20	60.4	60.4	60.4	80	54.2	0	0	---	0.00	30.070 
00:25	60.1	60.1	60.1	81	54.2	0	0	---	0.00	30.070 
00:30	59.8	59.8	59.8	82	54.3	0	0	---	0.00	30.070 
00:35	59.5	59.5	59.5	83	54.3	0	0	---	0.00	30.070 
00:40	59.3	59.3	59.3	84	54.5	0	0	---	0.00	30.070 
00:45	59.0	59.0	59.0	84	54.2	0	0	---	0.00	30.072 
00:50	58.7	58.7	58.7	85	54.2	0	0	---	0.00	30.072 
00:55	58.6	58.6	58.6	85	54.1	0	0	---	0.00	30.072 
01:00	58.3	58.3	58.3	86	54.1	0	0	---	0.00	30.071 
01:05	58.1	58.1	58.1	87	54.2	0	0	---	0.00	30.071 
01:10	58.0	58.0	58.0	87	54.1	0	0	---	0.00	30.071 
01:15	57.8	57.8	57.8	88	54.3	0	0	---	0.00	30.072 
01:20	57.6	57.6	57.6	88	54.1	0	0	---	0.00	30.072 
01:25	57.5	57.5	57.5	88	54.0	0	0	---	0.00	30.072 
01:30	57.3	57.3	57.3	88	53.8	0	0	---	0.00	30.071 
01:35	57.2	57.2	57.2	89	54.0	0	0	---	0.00	30.071 
01:40	57.0	57.0	57.0	89	53.8	0	0	---	0.00	30.071 
01:45	56.9	56.9	56.9	89	53.7	0	0	---	0.00	30.070 
01:50	56.7	56.7	56.7	90	53.8	0	0	---	0.00	30.070 
01:55	56.7	56.7	56.7	90	53.8	0	0	---	0.00	30.070 
02:00	56.6	56.6	56.6	90	53.7	0	0	---	0.00	30.063 
02:05	56.6	56.6	56.6	90	53.7	0	0	---	0.00	30.063 
02:10	56.6	56.6	56.6	90	53.7	0	0	---	0.00	30.063 
02:15	56.6	56.6	56.6	91	54.0	0	0	---	0.00	30.069 
02:20	56.5	56.5	56.5	91	53.9	0	0	---	0.00	30.069 
02:25	56.5	56.5	56.5	91	53.9	0	0	---	0.00	30.069 
02:30	56.5	56.5	56.5	91	53.9	0	0	---	0.00	30.062 
02:35	56.3	56.3	56.3	91	53.7	0	0	---	0.00	30.062 
02:40	56.3	56.3	56.3	91	53.7	0	0	---	0.00	30.062 
02:45	56.2	56.2	56.2	91	53.6	0	0	---	0.00	30.064 
02:50	56.2	56.2	56.2	91	53.6	0	0	---	0.00	30.064 
02:55	56.0	56.0	56.0	91	53.4	0	0	---	0.00	30.064 
03:00	55.9	55.9	55.9	92	53.6	0	0	---	0.00	30.064 
03:05	55.7	55.7	55.7	91	53.1	0	0	---	0.00	30.064 
03:10	55.6	55.6	55.6	92	53.3	0	0	---	0.00	30.064 
03:15	55.4	55.4	55.4	92	53.1	0	0	---	0.00	30.066 
03:20	55.3	55.3	55.3	92	53.0	0	0	---	0.00	30.066 
03:25	55.1	55.1	55.1	92	52.8	0	0	---	0.00	30.066 
03:30	55.1	55.1	55.1	92	52.8	0	0	---	0.00	30.065 
03:35	55.0	55.0	55.0	92	52.7	0	0	---	0.00	30.065 
03:40	54.8	54.8	54.8	92	52.5	0	0	---	0.00	30.065 
03:45	54.7	54.7	54.7	92	52.4	0	0	---	0.00	30.065 
03:50	54.5	54.5	54.5	92	52.2	0	0	---	0.00	30.065 
03:55	54.4	54.4	54.4	92	52.1	0	0	---	0.00	30.065 
04:00	54.4	54.4	54.4	92	52.1	0	0	---	0.00	30.074 
04:05	54.4	54.4	54.4	93	52.4	0	0	---	0.00	30.074 
04:10	54.4	54.4	54.4	93	52.4	0	0	---	0.00	30.074 
04:15	54.4	54.4	54.4	93	52.4	0	0	---	0.00	30.073 
04:20	54.4	54.4	54.4	93	52.4	0	0	---	0.00	30.073 
04:25	54.4	54.4	54.4	93	52.4	0	0	---	0.00	30.073 
04:30	54.2	54.2	54.2	93	52.2	0	0	---	0.00	30.066 
04:35	54.1	54.1	54.1	93	52.1	0	0	---	0.00	30.066 
04:40	53.9	53.9	53.9	93	51.9	0	0	---	0.00	30.066 
04:45	53.8	53.8	53.8	93	51.8	0	0	---	0.00	30.060 
04:50	53.6	53.6	53.6	93	51.6	0	0	---	0.00	30.060 
04:55	53.6	53.6	53.6	94	51.9	0	0	---	0.00	30.060 
05:00	53.5	53.5	53.5	94	51.8	0	0	---	0.00	30.057 
05:05	53.3	53.3	53.3	94	51.6	0	0	---	0.00	30.057 
05:10	53.3	53.3	53.3	94	51.6	0	0	---	0.00	30.057 
05:15	53.3	53.3	53.3	94	51.6	0	0	---	0.00	30.062 
05:20	53.2	53.2	53.2	94	51.5	0	0	---	0.00	30.062 
05:25	53.2	53.2	53.2	94	51.5	0	0	---	0.00	30.062 
05:30	53.1	53.1	53.1	94	51.4	0	0	---	0.00	30.060 
05:35	52.9	52.9	52.9	94	51.2	0	0	---	0.00	30.060 
05:40	52.9	52.9	52.9	94	51.2	0	0	---	0.00	30.060 
05:45	52.8	52.8	52.8	94	51.1	0	0	---	0.00	30.059 
05:50	52.6	52.6	52.6	94	50.9	0	0	---	0.00	30.059 
05:55	52.6	52.6	52.6	94	50.9	0	0	---	0.00	30.059 
06:00	52.6	52.6	52.6	94	50.9	0	0	---	0.00	30.060 
06:05	52.6	52.6	52.6	94	50.9	0	0	---	0.00	30.060 
06:10	52.5	52.5	52.5	94	50.8	0	0	---	0.00	30.060 
06:15	52.5	52.5	52.5	94	50.8	0	0	---	0.00	30.066 
06:20	52.3	52.3	52.3	94	50.6	0	0	---	0.00	30.066 
06:25	52.3	52.3	52.3	95	50.9	0	0	---	0.00	30.066 
06:30	52.3	52.3	52.3	95	50.9	0	0	---	0.00	30.062 
06:35	52.3	52.3	52.3	95	50.9	0	0	---	0.00	30.062 
06:40	52.5	52.5	52.5	95	51.1	0	0	---	0.00	30.062 
06:45	52.6	52.6	52.6	95	51.2	0	0	---	0.00	30.062 
06:50	52.8	52.8	52.8	95	51.4	0	0	---	0.00	30.062 
06:55	53.1	53.1	53.1	95	51.7	0	0	---	0.00	30.062 
07:00	53.2	53.2	53.2	95	51.8	0	0	---	0.00	30.074 
07:05	53.5	53.5	53.5	95	52.1	0	0	---	0.00	30.074 
07:10	53.8	53.8	53.8	95	52.4	0	0	---	0.00	30.074 
07:15	54.5	54.5	54.5	96	53.4	0	0	---	0.00	30.070 
07:20	55.1	55.1	55.1	96	54.0	0	0	---	0.00	30.070 
07:25	55.9	55.9	55.9	96	54.8	0	0	---	0.00	30.070 
07:30	56.5	56.5	56.5	96	55.4	0	0	---	0.00	30.066 
07:35	57.2	57.2	57.2	96	56.1	0	0	---	0.00	30.066 
07:40	57.6	57.6	57.6	96	56.5	0	0	---	0.00	30.066 
07:45	57.8	57.8	57.8	96	56.7	0	0	---	0.00	30.069 
07:50	58.1	58.1	58.1	96	57.0	0	0	---	0.00	30.069 
07:55	58.4	58.4	58.4	95	57.0	0	0	---	0.00	30.069 
08:00	58.7	58.7	58.7	95	57.3	0	0	---	0.00	30.072 
08:05	59.2	59.2	59.2	94	57.5	0	0	---	0.00	30.072 
08:10	59.6	59.6	59.6	94	57.9	0	0	---	0.00	30.072 
08:15	59.9	59.9	59.9	93	57.9	0	1	315	0.00	30.069 
08:20	60.2	60.2	60.2	92	57.9	0	0	---	0.00	30.069 
08:25	60.7	60.7	60.7	90	57.7	0	0	---	0.00	30.069 
08:30	60.9	60.9	60.9	88	57.3	0	2	202	0.00	30.068 
08:35	61.3	61.3	61.3	86	57.1	0	2	202	0.00	30.068 
08:40	61.8	61.8	61.8	85	57.2	0	1	202	0.00	30.068 
08:45	62.1	62.1	62.1	84	57.2	0	2	180	0.00	30.071 
08:50	62.6	62.6	62.6	84	57.7	0	1	180	0.00	30.071 
08:55	62.7	62.7	62.7	82	57.1	0	2	180	0.00	30.071 
09:00	63.1	63.1	63.1	81	57.2	0	2	68	0.00	30.070 
09:05	63.4	63.4	63.4	80	57.1	0	2	68	0.00	30.070 
09:10	63.9	63.9	63.9	81	57.9	0	1	68	0.00	30.070 
09:15	64.2	64.2	64.2	79	57.5	0	1	68	0.00	30.073 
09:20	64.3	64.3	64.3	77	56.9	0	1	68	0.00	30.073 
09:25	64.5	64.5	64.5	78	57.5	0	1	68	0.00	30.073 
09:30	64.7	64.7	64.7	77	57.3	0	1	68	0.00	30.072 
09:35	64.8	64.8	64.8	77	57.4	0	1	68	0.00	30.072 
09:40	65.2	65.2	65.2	77	57.8	0	2	68	0.00	30.072 
09:45	65.3	65.3	65.3	76	57.5	0	1	68	0.00	30.078 
09:50	65.5	65.5	65.5	76	57.7	0	2	68	0.00	30.078 
09:55	65.8	65.8	65.8	77	58.4	0	1	68	0.00	30.078 
10:00	66.1	66.1	66.1	75	57.9	0	2	68	0.00	30.077 
10:05	66.3	66.3	66.3	73	57.4	0	2	68	0.00	30.077 
10:10	66.4	66.4	66.4	73	57.5	0	2	68	0.00	30.077 
10:15	66.6	66.6	66.6	73	57.7	0	2	45	0.00	30.078 
10:20	66.9	66.9	66.9	72	57.6	0	2	45	0.00	30.078 
10:25	67.1	67.1	67.1	72	57.8	0	4	112	0.00	30.078 
10:30	67.4	67.4	67.4	72	58.1	0	3	90	0.00	30.078 
10:35	67.6	67.6	67.6	72	58.2	0	3	68	0.00	30.078 
10:40	67.8	67.8	67.8	71	58.0	1	5	90	0.00	30.078 
10:45	68.1	68.1	68.1	71	58.3	1	4	90	0.00	30.072 
10:50	68.3	68.3	68.3	70	58.1	1	3	112	0.00	30.072 
10:55	68.6	68.6	68.6	70	58.4	0	2	248	0.00	30.072 
11:00	68.9	68.9	68.9	69	58.3	0	3	45	0.00	30.070 
11:05	68.9	68.9	68.9	68	57.9	1	4	292	0.00	30.070 
11:10	69.3	69.3	69.3	67	57.9	0	2	68	0.00	30.070 
11:15	69.4	69.4	69.4	66	57.5	1	3	90	0.00	30.073 
11:20	69.4	69.4	69.4	66	57.5	1	2	90	0.00	30.073 
11:25	69.4	69.4	69.4	67	58.0	0	1	90	0.00	30.073 
11:30	69.6	69.6	69.6	66	57.7	0	2	90	0.00	30.071 
11:35	69.6	69.6	69.6	66	57.7	1	3	90	0.00	30.071 
11:40	69.6	69.6	69.6	67	58.1	0	2	90	0.00	30.071 
11:45	69.8	69.8	69.8	66	57.9	0	2	90	0.00	30.073 
11:50	69.9	69.9	69.9	65	57.6	0	2	90	0.00	30.073 
11:55	69.9	69.9	69.9	65	57.6	0	1	90	0.00	30.073 
12:00	69.8	69.8	69.8	65	57.5	0	3	90	0.00	30.071 
12:05	69.9	69.9	69.9	65	57.6	0	1	315	0.00	30.071 
12:10	69.9	69.9	69.9	64	57.2	1	3	112	0.00	30.071 
12:15	70.1	70.1	70.1	65	57.8	0	2	112	0.00	30.072 
12:20	70.3	70.3	70.3	63	57.1	1	2	112	0.00	30.072 
12:25	70.4	70.4	70.4	66	58.5	0	2	112	0.00	30.072 
12:30	70.8	70.8	70.8	62	57.1	1	2	112	0.00	30.067 
12:35	70.9	70.9	70.9	62	57.2	1	2	112	0.00	30.067 
12:40	71.3	71.3	71.3	64	58.5	0	2	112	0.00	30.067 
12:45	71.6	71.6	71.6	61	57.4	1	4	112	0.00	30.060 
12:50	71.8	71.8	71.8	62	58.1	1	3	112	0.00	30.060 
12:55	71.6	71.6	71.6	60	57.0	1	2	112	0.00	30.060 
13:00	71.8	71.8	71.8	62	58.1	0	2	112	0.00	30.058 
13:05	72.0	72.0	72.0	61	57.8	0	2	112	0.00	30.058 
13:10	72.0	72.0	72.0	60	57.3	0	1	112	0.00	30.058 
13:15	72.0	72.0	72.0	61	57.8	0	2	112	0.00	30.059 
13:20	71.8	71.8	71.8	60	57.2	0	1	112	0.00	30.059 
13:25	71.8	71.8	71.8	62	58.1	0	1	112	0.00	30.059 
13:30	72.0	72.0	72.0	61	57.8	0	1	112	0.00	30.050 
13:35	71.8	71.8	71.8	58	56.2	1	4	112	0.00	30.050 
13:40	71.8	71.8	71.8	59	56.7	1	2	112	0.00	30.050 
13:45	71.6	71.6	71.6	60	57.0	0	2	112	0.00	30.042 
13:50	71.6	71.6	71.6	61	57.4	0	3	202	0.00	30.042 
13:55	71.8	71.8	71.8	60	57.2	0	1	68	0.00	30.042 
14:00	71.8	71.8	71.8	58	56.2	1	2	68	0.00	30.033 
14:05	72.0	72.0	72.0	58	56.4	0	2	112	0.00	30.033 
14:10	72.0	72.0	72.0	58	56.4	0	2	112	0.00	30.033 
14:15	72.0	72.0	72.0	59	56.9	1	3	112	0.00	30.031 
14:20	72.0	72.0	72.0	60	57.3	0	1	112	0.00	30.031 
14:25	72.1	72.1	72.1	58	56.5	0	2	112	0.00	30.031 
14:30	72.1	72.1	72.1	57	56.0	0	2	112	0.00	30.027 
14:35	72.1	72.1	72.1	55	55.0	1	3	112	0.00	30.027 
14:40	72.1	72.1	72.1	57	56.0	0	2	112	0.00	30.027 
14:45	72.1	72.1	72.1	57	56.0	0	1	112	0.00	30.020 
14:50	72.1	72.1	72.1	57	56.0	0	1	112	0.00	30.020 
14:55	72.1	72.1	72.1	56	55.5	0	1	112	0.00	30.020 
15:00	72.1	72.1	72.1	55	55.0	0	2	112	0.00	30.016 
15:05	72.1	72.1	72.1	55	55.0	1	3	90	0.00	30.016 
15:10	72.0	72.0	72.0	55	54.9	0	2	90	0.00	30.016 
15:15	72.0	72.0	72.0	57	55.9	0	2	90	0.00	30.016 
15:20	72.0	72.0	72.0	58	56.4	0	2	270	0.00	30.016 
15:25	72.0	72.0	72.0	58	56.4	0	1	270	0.00	30.016 
15:30	72.0	72.0	72.0	59	56.9	0	2	270	0.00	30.014 
15:35	71.8	71.8	71.8	60	57.2	0	2	270	0.00	30.014 
15:40	71.6	71.6	71.6	60	57.0	0	2	270	0.00	30.014 
15:45	71.6	71.6	71.6	62	57.9	0	1	270	0.00	30.014 
15:50	71.8	71.8	71.8	62	58.1	0	0	---	0.00	30.014 
15:55	71.8	71.8	71.8	62	58.1	0	0	---	0.00	30.014 
16:00	71.8	71.8	71.8	63	58.5	0	1	270	0.00	30.013 
16:05	71.8	71.8	71.8	63	58.5	0	1	270	0.00	30.013 
16:10	71.6	71.6	71.6	65	59.2	0	2	270	0.00	30.013 
16:15	71.8	71.8	71.8	67	60.2	0	1	270	0.00	30.015 
16:20	71.6	71.6	71.6	66	59.6	0	1	270	0.00	30.015 
16:25	71.5	71.5	71.5	67	60.0	0	1	270	0.00	30.015 
16:30	71.3	71.3	71.3	67	59.8	0	1	270	0.00	30.018 
16:35	71.1	71.1	71.1	69	60.4	0	1	270	0.00	30.018 
16:40	71.1	71.1	71.1	69	60.4	0	1	270	0.00	30.018 
16:45	70.9	70.9	70.9	70	60.6	0	1	270	0.00	30.016 
16:50	70.9	70.9	70.9	71	61.0	0	1	270	0.00	30.016 
16:55	70.6	70.6	70.6	72	61.1	0	2	270	0.00	30.016 
17:00	70.3	70.3	70.3	72	60.8	0	2	270	0.00	30.014 
17:05	70.1	70.1	70.1	73	61.0	0	1	270	0.00	30.014 
17:10	69.9	69.9	69.9	75	61.6	0	1	270	0.00	30.014 
17:15	69.8	69.8	69.8	77	62.3	0	1	270	0.00	30.014 
17:20	69.8	69.8	69.8	77	62.3	0	2	248	0.00	30.014 
17:25	69.8	69.8	69.8	78	62.6	0	1	248	0.00	30.014 
17:30	69.6	69.6	69.6	78	62.4	0	2	248	0.00	30.014 
17:35	69.4	69.4	69.4	79	62.6	0	1	248	0.00	30.014 
17:40	69.6	69.6	69.6	79	62.8	0	2	248	0.00	30.014 
17:45	69.6	69.6	69.6	78	62.4	0	1	248	0.00	30.006 
17:50	69.8	69.8	69.8	78	62.6	0	1	248	0.00	30.006 
17:55	69.8	69.8	69.8	79	63.0	0	0	---	0.00	30.006 
18:00	69.8	69.8	69.8	78	62.6	0	2	248	0.00	30.003 
18:05	69.6	69.6	69.6	78	62.4	0	1	248	0.00	30.003 
18:10	69.8	69.8	69.8	79	63.0	0	1	248	0.00	30.003 
18:15	69.8	69.8	69.8	79	63.0	0	1	248	0.00	30.000 
18:20	69.9	69.9	69.9	80	63.4	0	0	---	0.00	30.000 
18:25	70.1	70.1	70.1	79	63.3	0	1	248	0.00	30.000 
18:30	70.4	70.4	70.4	79	63.6	0	1	248	0.00	29.995 
18:35	70.4	70.4	70.4	79	63.6	0	0	---	0.00	29.995 
18:40	70.3	70.3	70.3	78	63.1	0	1	248	0.00	29.995 
18:45	70.1	70.1	70.1	79	63.3	0	0	---	0.00	29.986 
18:50	70.1	70.1	70.1	81	64.0	0	0	---	0.00	29.986 
18:55	70.1	70.1	70.1	82	64.3	0	1	248	0.00	29.986 
19:00	69.9	69.9	69.9	83	64.5	0	1	248	0.00	29.981 
19:05	69.6	69.6	69.6	83	64.2	0	1	248	0.00	29.981 
19:10	69.4	69.4	69.4	83	64.0	0	1	338	0.00	29.981 
19:15	69.1	69.1	69.1	83	63.7	0	2	0	0.00	29.976 
19:20	68.8	68.8	68.8	82	63.1	0	2	0	0.00	29.976 
19:25	68.4	68.4	68.4	82	62.7	0	2	315	0.00	29.976 
19:30	68.3	68.3	68.3	82	62.6	0	1	315	0.00	29.979 
19:35	68.1	68.1	68.1	82	62.4	0	0	---	0.00	29.979 
19:40	68.1	68.1	68.1	83	62.7	0	0	---	0.00	29.979 
19:45	68.1	68.1	68.1	83	62.7	0	0	---	0.00	29.981 
19:50	67.9	67.9	67.9	83	62.5	0	1	315	0.00	29.981 
19:55	67.9	67.9	67.9	83	62.5	0	0	---	0.00	29.981 
20:00	67.8	67.8	67.8	84	62.8	0	0	---	0.00	29.980 
20:05	67.8	67.8	67.8	84	62.8	0	0	---	0.00	29.980 
20:10	67.6	67.6	67.6	84	62.6	0	1	315	0.00	29.980 
20:15	67.6	67.6	67.6	84	62.6	0	1	315	0.00	29.968 
20:20	67.4	67.4	67.4	84	62.4	0	1	315	0.00	29.968 
20:25	67.3	67.3	67.3	84	62.3	0	1	315	0.00	29.968 
20:30	67.3	67.3	67.3	85	62.6	0	0	---	0.00	29.967 
20:35	67.1	67.1	67.1	85	62.4	0	1	315	0.00	29.967 
20:40	67.1	67.1	67.1	86	62.8	0	0	---	0.00	29.967 
20:45	66.9	66.9	66.9	86	62.6	0	0	---	0.00	29.964 
20:50	66.8	66.8	66.8	87	62.8	0	0	---	0.00	29.964 
20:55	66.8	66.8	66.8	88	63.1	0	1	315	0.01	29.964 
21:00	66.6	66.6	66.6	88	62.9	0	1	315	0.00	29.963 
21:05	66.4	66.4	66.4	88	62.7	0	0	---	0.00	29.963 
21:10	66.4	66.4	66.4	89	63.1	0	0	---	0.00	29.963 
21:15	66.3	66.3	66.3	89	63.0	0	0	---	0.00	29.962 
21:20	66.1	66.1	66.1	89	62.8	0	0	---	0.00	29.962 
21:25	66.0	66.0	66.0	90	63.0	0	0	---	0.00	29.962 
21:30	66.0	66.0	66.0	90	63.0	0	0	---	0.00	29.961 
21:35	65.8	65.8	65.8	91	63.1	0	0	---	0.00	29.961 
21:40	65.6	65.6	65.6	91	62.9	0	0	---	0.00	29.961 
21:45	65.5	65.5	65.5	91	62.8	0	0	---	0.00	29.959 
21:50	65.5	65.5	65.5	92	63.1	0	0	---	0.00	29.959 
21:55	65.5	65.5	65.5	92	63.1	0	0	---	0.00	29.959 
22:00	65.3	65.3	65.3	92	62.9	0	0	---	0.00	29.962 
22:05	65.2	65.2	65.2	92	62.8	0	0	---	0.00	29.962 
22:10	65.2	65.2	65.2	93	63.1	0	0	---	0.00	29.962 
22:15	65.2	65.2	65.2	93	63.1	0	0	---	0.00	29.963 
22:20	65.0	65.0	65.0	93	62.9	0	0	---	0.00	29.963 
22:25	65.0	65.0	65.0	93	62.9	0	0	---	0.00	29.963 
22:30	64.8	64.8	64.8	93	62.7	0	0	---	0.00	29.965 
22:35	64.8	64.8	64.8	93	62.7	0	0	---	0.00	29.965 
22:40	64.7	64.7	64.7	93	62.6	0	0	---	0.00	29.965 
22:45	64.7	64.7	64.7	93	62.6	0	0	---	0.00	29.966 
22:50	64.7	64.7	64.7	93	62.6	0	0	---	0.00	29.966 
22:55	64.7	64.7	64.7	93	62.6	0	0	---	0.00	29.966 
23:00	64.7	64.7	64.7	94	62.9	0	0	---	0.00	29.962 
23:05	64.7	64.7	64.7	94	62.9	0	0	---	0.00	29.962 
23:10	64.5	64.5	64.5	94	62.7	0	0	---	0.00	29.962 
23:15	64.3	64.3	64.3	94	62.5	0	0	---	0.00	29.961 
23:20	64.2	64.2	64.2	94	62.4	0	0	---	0.00	29.961 
23:25	64.0	64.0	64.0	94	62.2	0	0	---	0.00	29.961 
23:30	63.9	63.9	63.9	94	62.1	0	0	---	0.00	29.960 
23:35	63.9	63.9	63.9	94	62.1	0	0	---	0.00	29.960 
23:40	63.9	63.9	63.9	94	62.1	0	0	---	0.00	29.960 
23:45	63.9	63.9	63.9	94	62.1	0	0	---	0.00	29.959 
23:50	63.9	63.9	63.9	94	62.1	0	0	---	0.00	29.959 
23:55	63.9	63.9	63.9	94	62.1	0	0	---	0.00	29.959 

CoCoRaHS
IN-AL-39
A2 Web Hosting
Creative Commons License
GoDaddy
search engine by freefind advanced

loaded 2018-11-13 01:31:58 • last modified 2010-11-18 10:43:29
Privacy PolicyDisclaimer
• wx.awcolley.com is powered by PmWiki v.2002016 •
• all content (unless otherwise noted) © 2018 A W Colley